.
WxDataArchive / Data Records for 2009-02-23
2009-02-22 February 2009 2009-02-24

Data Records for Monday, 23 February 2009

Time	Temp	Chill	HIndex	Humid	Dewpt	 Wind 	HiWind	WindDir	Rain 	Barom 
-----	----	-----	------	-----	-----	------	------	-------	-----	----- 
00:00	20.6	20.6	20.6	73	13.3	1	3	248	0.00	30.485 
00:05	20.5	20.5	20.5	73	13.2	0	2	315	0.00	30.483 
00:10	20.5	20.5	20.5	74	13.6	1	3	248	0.00	30.484 
00:15	20.3	20.3	20.3	74	13.4	1	2	248	0.00	30.484 
00:20	20.3	20.3	20.3	74	13.4	1	5	248	0.00	30.484 
00:25	20.2	20.2	20.2	74	13.3	1	2	270	0.00	30.482 
00:30	20.2	20.2	20.2	75	13.6	1	2	270	0.00	30.483 
00:35	20.0	20.0	20.0	75	13.4	0	2	270	0.00	30.483 
00:40	19.9	19.9	19.9	76	13.6	0	1	270	0.00	30.482 
00:45	19.9	19.9	19.9	76	13.6	1	3	225	0.00	30.486 
00:50	19.7	19.7	19.7	76	13.4	0	1	225	0.00	30.486 
00:55	19.7	19.7	19.7	76	13.4	0	3	248	0.00	30.490 
01:00	19.5	19.5	19.5	77	13.5	0	2	248	0.00	30.489 
01:05	19.4	19.4	19.4	77	13.4	0	2	248	0.00	30.494 
01:10	19.2	19.2	19.2	77	13.2	0	1	248	0.00	30.496 
01:15	19.1	19.1	19.1	77	13.1	0	1	248	0.00	30.497 
01:20	18.8	18.8	18.8	77	12.8	0	1	248	0.00	30.497 
01:25	18.6	18.6	18.6	78	12.9	0	1	248	0.00	30.497 
01:30	18.4	18.4	18.4	78	12.7	0	1	248	0.00	30.497 
01:35	18.3	18.3	18.3	78	12.6	0	1	248	0.00	30.498 
01:40	18.3	18.3	18.3	78	12.6	0	1	248	0.00	30.498 
01:45	18.1	18.1	18.1	79	12.7	0	1	248	0.00	30.497 
01:50	18.0	18.0	18.0	79	12.6	0	1	248	0.00	30.498 
01:55	18.0	18.0	18.0	79	12.6	0	1	248	0.00	30.498 
02:00	17.8	17.8	17.8	79	12.4	0	3	248	0.00	30.498 
02:05	17.7	17.7	17.7	80	12.6	0	1	248	0.00	30.499 
02:10	17.7	17.7	17.7	80	12.6	0	1	248	0.00	30.499 
02:15	17.5	17.5	17.5	80	12.4	0	1	248	0.00	30.500 
02:20	17.3	17.3	17.3	80	12.2	0	1	248	0.00	30.501 
02:25	17.2	17.2	17.2	80	12.1	0	1	248	0.00	30.502 
02:30	17.0	17.0	17.0	81	12.2	0	1	248	0.00	30.501 
02:35	17.0	17.0	17.0	81	12.2	0	1	248	0.00	30.502 
02:40	16.9	16.9	16.9	81	12.1	0	1	248	0.00	30.501 
02:45	16.7	16.7	16.7	81	11.9	0	1	248	0.00	30.501 
02:50	16.5	16.5	16.5	81	11.7	0	1	248	0.00	30.501 
02:55	16.5	16.5	16.5	81	11.7	0	2	248	0.00	30.501 
03:00	16.5	16.5	16.5	81	11.7	1	2	248	0.00	30.502 
03:05	16.5	16.5	16.5	82	12.0	1	3	248	0.00	30.504 
03:10	16.5	16.5	16.5	82	12.0	0	1	248	0.00	30.502 
03:15	16.4	16.4	16.4	82	11.9	0	2	248	0.00	30.502 
03:20	16.2	16.2	16.2	82	11.7	0	2	248	0.00	30.502 
03:25	16.2	16.2	16.2	82	11.7	0	2	248	0.00	30.502 
03:30	16.1	16.1	16.1	82	11.6	0	1	248	0.00	30.502 
03:35	15.9	15.9	15.9	82	11.4	0	1	248	0.00	30.502 
03:40	15.9	15.9	15.9	82	11.4	0	1	248	0.00	30.502 
03:45	15.7	15.7	15.7	83	11.5	0	1	248	0.00	30.501 
03:50	15.6	15.6	15.6	83	11.4	0	1	248	0.00	30.501 
03:55	15.6	15.6	15.6	83	11.4	0	1	248	0.00	30.502 
04:00	15.4	15.4	15.4	83	11.2	0	2	248	0.00	30.506 
04:05	15.4	15.4	15.4	83	11.2	0	1	248	0.00	30.506 
04:10	15.4	15.4	15.4	83	11.2	0	2	248	0.00	30.505 
04:15	15.2	15.2	15.2	84	11.3	0	2	248	0.00	30.505 
04:20	15.2	15.2	15.2	84	11.3	0	1	248	0.00	30.505 
04:25	15.1	15.1	15.1	84	11.2	0	1	248	0.00	30.506 
04:30	14.9	14.9	14.9	84	11.0	0	1	248	0.00	30.507 
04:35	14.8	14.8	14.8	84	10.9	0	1	248	0.00	30.508 
04:40	14.8	14.8	14.8	84	10.9	0	1	248	0.00	30.511 
04:45	14.6	14.6	14.6	84	10.7	0	1	248	0.00	30.513 
04:50	14.6	14.6	14.6	84	10.7	0	0	---	0.00	30.514 
04:55	14.4	14.4	14.4	84	10.5	0	1	248	0.00	30.513 
05:00	14.4	14.4	14.4	84	10.5	0	1	248	0.00	30.514 
05:05	14.3	14.3	14.3	84	10.4	0	1	248	0.00	30.519 
05:10	14.3	14.3	14.3	84	10.4	0	1	248	0.00	30.521 
05:15	14.3	14.3	14.3	84	10.4	0	1	248	0.00	30.521 
05:20	14.1	14.1	14.1	84	10.2	0	1	248	0.00	30.521 
05:25	14.1	14.1	14.1	84	10.2	0	1	248	0.00	30.522 
05:30	14.1	14.1	14.1	84	10.2	0	1	248	0.00	30.523 
05:35	14.0	14.0	14.0	84	10.1	0	1	248	0.00	30.525 
05:40	14.0	14.0	14.0	84	10.1	0	1	248	0.00	30.527 
05:45	13.8	13.8	13.8	84	9.9	0	1	248	0.00	30.529 
05:50	13.6	13.6	13.6	84	9.7	0	1	248	0.00	30.530 
05:55	13.5	13.5	13.5	84	9.6	0	1	248	0.00	30.532 
06:00	13.3	13.3	13.3	84	9.4	0	1	248	0.00	30.536 
06:05	13.3	13.3	13.3	84	9.4	0	1	248	0.00	30.539 
06:10	13.1	13.1	13.1	84	9.2	0	1	248	0.00	30.540 
06:15	12.9	12.9	12.9	84	9.0	0	0	---	0.00	30.542 
06:20	12.9	12.9	12.9	84	9.0	0	1	248	0.00	30.543 
06:25	12.9	12.9	12.9	84	9.0	0	1	248	0.00	30.548 
06:30	12.9	12.9	12.9	84	9.0	0	1	248	0.00	30.552 
06:35	12.8	12.8	12.8	84	8.9	0	1	248	0.00	30.554 
06:40	12.8	12.8	12.8	84	8.9	0	1	248	0.00	30.556 
06:45	12.8	12.8	12.8	85	9.2	0	1	248	0.00	30.557 
06:50	12.8	12.8	12.8	85	9.2	0	0	---	0.00	30.557 
06:55	12.9	12.9	12.9	85	9.3	0	1	248	0.00	30.560 
07:00	13.1	13.1	13.1	85	9.5	0	1	248	0.00	30.560 
07:05	13.6	13.6	13.6	86	10.2	0	1	248	0.00	30.561 
07:10	13.8	13.8	13.8	86	10.4	0	1	248	0.00	30.563 
07:15	14.1	14.1	14.1	86	10.7	0	1	248	0.00	30.568 
07:20	14.6	14.6	14.6	86	11.2	0	1	248	0.00	30.570 
07:25	14.9	14.9	14.9	86	11.5	0	1	248	0.00	30.570 
07:30	15.1	15.1	15.1	86	11.7	0	1	248	0.00	30.572 
07:35	15.4	15.4	15.4	86	12.0	0	2	248	0.00	30.573 
07:40	15.6	15.6	15.6	86	12.2	0	2	248	0.00	30.572 
07:45	15.7	15.7	15.7	85	12.0	0	1	248	0.00	30.577 
07:50	15.9	15.9	15.9	85	12.2	0	1	248	0.00	30.580 
07:55	16.2	16.2	16.2	85	12.5	0	1	248	0.00	30.585 
08:00	16.4	16.4	16.4	85	12.7	0	1	248	0.00	30.586 
08:05	16.5	16.5	16.5	85	12.8	0	1	248	0.00	30.588 
08:10	16.7	16.7	16.7	85	13.0	0	1	248	0.00	30.592 
08:15	17.0	17.0	17.0	84	13.0	0	1	248	0.00	30.594 
08:20	17.2	17.2	17.2	84	13.2	0	1	248	0.00	30.595 
08:25	17.3	17.3	17.3	84	13.3	0	1	248	0.00	30.595 
08:30	17.7	17.7	17.7	84	13.7	0	1	248	0.00	30.597 
08:35	18.0	18.0	18.0	84	14.0	0	1	248	0.00	30.596 
08:40	18.1	18.1	18.1	83	13.8	0	2	248	0.00	30.598 
08:45	18.3	18.3	18.3	83	14.0	0	1	248	0.00	30.598 
08:50	18.8	18.8	18.8	82	14.2	0	1	248	0.00	30.598 
08:55	19.1	19.1	19.1	82	14.5	0	1	248	0.00	30.598 
09:00	19.7	19.7	19.7	81	14.8	0	2	248	0.00	30.597 
09:05	20.0	20.0	20.0	80	14.8	1	2	315	0.00	30.600 
09:10	20.5	20.5	20.5	80	15.3	1	2	315	0.00	30.601 
09:15	20.8	20.8	20.8	79	15.3	0	2	315	0.00	30.601 
09:20	21.3	21.3	21.3	78	15.5	0	2	315	0.00	30.602 
09:25	21.3	21.3	21.3	77	15.2	0	1	22	0.00	30.608 
09:30	21.6	21.6	21.6	76	15.2	0	2	0	0.00	30.607 
09:35	21.8	21.8	21.8	75	15.1	0	2	0	0.00	30.608 
09:40	22.2	22.2	22.2	74	15.2	0	3	0	0.00	30.609 
09:45	22.4	22.4	22.4	73	15.1	0	2	292	0.00	30.610 
09:50	22.7	22.7	22.7	72	15.1	0	2	292	0.00	30.609 
09:55	23.0	23.0	23.0	71	15.0	1	2	292	0.00	30.610 
10:00	23.2	23.2	23.2	71	15.2	0	2	292	0.00	30.610 
10:05	23.5	23.5	23.5	70	15.2	1	5	248	0.00	30.608 
10:10	24.1	24.1	24.1	70	15.8	0	2	248	0.00	30.608 
10:15	24.2	24.2	24.2	69	15.5	0	2	0	0.00	30.609 
10:20	24.4	24.4	24.4	66	14.7	0	2	0	0.00	30.609 
10:25	24.7	24.7	24.7	65	14.6	0	2	0	0.00	30.610 
10:30	24.7	24.7	24.7	64	14.3	0	2	315	0.00	30.610 
10:35	25.0	25.0	25.0	63	14.2	0	3	22	0.00	30.611 
10:40	25.4	25.4	25.4	61	13.9	0	3	22	0.00	30.613 
10:45	25.4	25.4	25.4	60	13.5	1	2	22	0.00	30.615 
10:50	25.4	25.4	25.4	60	13.5	1	3	22	0.00	30.614 
10:55	25.4	25.4	25.4	60	13.5	1	4	135	0.00	30.613 
11:00	25.6	25.6	25.6	60	13.7	0	2	22	0.00	30.610 
11:05	25.8	25.8	25.8	58	13.1	0	2	22	0.00	30.612 
11:10	26.0	26.0	26.0	58	13.3	0	3	0	0.00	30.612 
11:15	26.0	26.0	26.0	56	12.5	1	2	0	0.00	30.611 
11:20	26.1	26.1	26.1	56	12.6	0	2	292	0.00	30.611 
11:25	26.3	26.3	26.3	55	12.4	1	5	292	0.00	30.611 
11:30	26.3	26.3	26.3	55	12.4	1	2	0	0.00	30.613 
11:35	26.3	26.3	26.3	55	12.4	1	2	0	0.01	30.613 
11:40	26.4	26.4	26.4	55	12.5	1	3	270	0.00	30.617 
11:45	26.6	26.6	26.6	55	12.6	1	3	0	0.00	30.614 
11:50	26.9	26.9	26.9	54	12.5	0	2	0	0.00	30.611 
11:55	27.0	27.0	27.0	53	12.2	1	5	0	0.00	30.611 
12:00	27.3	27.3	27.3	52	12.0	0	3	0	0.00	30.609 
12:05	27.9	27.9	27.9	50	11.7	1	3	22	0.00	30.607 
12:10	27.9	27.9	27.9	49	11.2	1	4	22	0.00	30.606 
12:15	27.0	27.0	27.0	50	10.9	1	5	338	0.00	30.609 
12:20	27.3	27.3	27.3	52	12.0	1	3	0	0.01	30.609 
12:25	27.6	27.6	27.6	50	11.4	1	3	45	0.00	30.606 
12:30	27.6	27.6	27.6	50	11.4	1	3	45	0.00	30.605 
12:35	27.6	27.6	27.6	50	11.4	1	4	22	0.00	30.604 
12:40	27.6	27.6	27.6	50	11.4	1	4	22	0.00	30.599 
12:45	27.3	27.3	27.3	50	11.1	1	3	45	0.00	30.595 
12:50	27.2	27.2	27.2	52	11.9	1	3	270	0.00	30.594 
12:55	27.5	27.5	27.5	50	11.3	1	3	22	0.00	30.592 
13:00	28.1	28.1	28.1	52	12.8	1	3	338	0.00	30.589 
13:05	28.2	28.2	28.2	51	12.4	1	2	0	0.01	30.591 
13:10	28.1	28.1	28.1	52	12.8	1	4	270	0.00	30.587 
13:15	27.5	27.5	27.5	52	12.2	1	3	0	0.00	30.584 
13:20	27.2	27.2	27.2	53	12.4	0	2	0	0.00	30.585 
13:25	27.2	27.2	27.2	53	12.4	1	7	225	0.00	30.585 
13:30	27.3	27.3	27.3	53	12.5	1	3	22	0.00	30.583 
13:35	27.5	27.5	27.5	52	12.2	1	4	0	0.00	30.581 
13:40	27.2	27.2	27.2	53	12.4	1	3	270	0.00	30.583 
13:45	26.9	26.9	26.9	52	11.7	1	4	22	0.00	30.581 
13:50	26.7	26.7	26.7	53	11.9	1	4	338	0.00	30.581 
13:55	26.9	26.9	26.9	53	12.1	1	3	292	0.00	30.580 
14:00	27.3	27.3	27.3	50	11.1	1	5	292	0.00	30.579 
14:05	27.0	27.0	27.0	51	11.3	1	3	315	0.00	30.579 
14:10	27.3	27.3	27.3	51	11.6	1	4	315	0.00	30.579 
14:15	27.9	27.9	27.9	52	12.6	1	3	248	0.00	30.576 
14:20	28.1	28.1	28.1	51	12.3	1	3	315	0.00	30.576 
14:25	27.5	27.5	27.5	52	12.2	1	3	338	0.00	30.576 
14:30	27.6	27.6	27.6	53	12.7	1	3	338	0.00	30.575 
14:35	27.9	27.9	27.9	53	13.0	1	2	315	0.00	30.573 
14:40	27.9	27.9	27.9	52	12.6	1	7	270	0.00	30.570 
14:45	28.2	28.2	28.2	53	13.3	1	4	270	0.00	30.566 
14:50	28.7	28.7	28.7	52	13.3	1	5	270	0.00	30.563 
14:55	28.1	28.1	28.1	51	12.3	2	6	338	0.00	30.565 
15:00	27.6	27.6	27.6	51	11.9	1	4	315	0.00	30.565 
15:05	27.9	27.9	27.9	52	12.6	1	4	248	0.00	30.566 
15:10	27.6	27.6	27.6	51	11.9	1	3	338	0.00	30.567 
15:15	27.8	27.8	27.8	51	12.1	1	5	0	0.00	30.566 
15:20	28.2	28.2	28.2	53	13.3	1	3	315	0.00	30.566 
15:25	28.7	28.7	28.7	52	13.3	1	3	270	0.00	30.565 
15:30	28.7	28.7	28.7	49	12.0	1	6	270	0.00	30.563 
15:35	29.0	29.0	29.0	52	13.6	1	3	270	0.00	30.562 
15:40	28.7	28.7	28.7	51	12.9	1	2	292	0.00	30.563 
15:45	28.1	28.1	28.1	52	12.8	1	4	270	0.00	30.566 
15:50	28.1	28.1	28.1	52	12.8	2	5	248	0.00	30.566 
15:55	28.1	28.1	28.1	54	13.6	1	2	292	0.00	30.566 
16:00	28.1	28.1	28.1	51	12.3	1	3	292	0.00	30.567 
16:05	28.5	28.5	28.5	52	13.1	2	4	248	0.00	30.566 
16:10	28.4	28.4	28.4	51	12.6	1	3	292	0.00	30.567 
16:15	28.5	28.5	28.5	52	13.1	1	3	248	0.00	30.568 
16:20	27.9	27.9	27.9	54	13.4	1	3	270	0.00	30.570 
16:25	27.5	27.5	27.5	53	12.6	0	2	338	0.00	30.569 
16:30	27.0	27.0	27.0	54	12.6	0	2	338	0.00	30.572 
16:35	26.9	26.9	26.9	54	12.5	1	3	338	0.00	30.570 
16:40	26.9	26.9	26.9	54	12.5	1	4	270	0.00	30.571 
16:45	26.9	26.9	26.9	55	12.9	1	5	0	0.00	30.570 
16:50	26.7	26.7	26.7	54	12.3	0	2	0	0.00	30.572 
16:55	26.9	26.9	26.9	53	12.1	0	2	22	0.00	30.573 
17:00	27.0	27.0	27.0	54	12.6	1	3	270	0.00	30.571 
17:05	26.9	26.9	26.9	51	11.2	1	2	338	0.00	30.573 
17:10	27.0	27.0	27.0	53	12.2	1	3	22	0.00	30.572 
17:15	27.2	27.2	27.2	52	11.9	1	2	338	0.00	30.573 
17:20	27.2	27.2	27.2	52	11.9	0	3	315	0.00	30.572 
17:25	26.9	26.9	26.9	51	11.2	0	2	338	0.00	30.568 
17:30	26.7	26.7	26.7	53	11.9	0	2	315	0.00	30.567 
17:35	26.6	26.6	26.6	52	11.4	0	2	315	0.00	30.565 
17:40	26.4	26.4	26.4	52	11.2	0	3	45	0.00	30.567 
17:45	26.4	26.4	26.4	52	11.2	0	1	45	0.00	30.567 
17:50	26.3	26.3	26.3	52	11.1	0	2	248	0.00	30.566 
17:55	26.1	26.1	26.1	52	10.9	0	3	315	0.00	30.563 
18:00	26.0	26.0	26.0	53	11.2	0	1	315	0.00	30.560 
18:05	25.8	25.8	25.8	54	11.5	0	1	315	0.00	30.558 
18:10	25.7	25.7	25.7	52	10.5	0	1	315	0.00	30.556 
18:15	25.4	25.4	25.4	52	10.3	0	3	292	0.00	30.559 
18:20	25.1	25.1	25.1	52	10.0	0	1	292	0.00	30.561 
18:25	24.8	24.8	24.8	53	10.1	0	1	292	0.00	30.562 
18:30	24.7	24.7	24.7	53	10.0	0	0	---	0.00	30.566 
18:35	24.4	24.4	24.4	54	10.2	0	1	292	0.00	30.565 
18:40	24.2	24.2	24.2	54	10.0	0	1	292	0.00	30.568 
18:45	23.9	23.9	23.9	54	9.7	0	1	292	0.00	30.569 
18:50	23.8	23.8	23.8	55	10.0	0	0	---	0.00	30.569 
18:55	23.5	23.5	23.5	55	9.7	0	0	---	0.00	30.571 
19:00	23.3	23.3	23.3	56	10.0	0	0	---	0.00	30.571 
19:05	23.0	23.0	23.0	56	9.7	0	0	---	0.00	30.570 
19:10	22.9	22.9	22.9	57	10.0	0	0	---	0.00	30.571 
19:15	22.5	22.5	22.5	57	9.6	0	0	---	0.00	30.572 
19:20	22.2	22.2	22.2	58	9.7	0	0	---	0.00	30.572 
19:25	21.9	21.9	21.9	58	9.4	0	0	---	0.00	30.572 
19:30	21.6	21.6	21.6	58	9.1	0	0	---	0.00	30.574 
19:35	21.1	21.1	21.1	58	8.7	0	0	---	0.00	30.576 
19:40	20.8	20.8	20.8	59	8.8	0	0	---	0.00	30.575 
19:45	20.5	20.5	20.5	61	9.2	0	0	---	0.00	30.578 
19:50	20.2	20.2	20.2	62	9.3	0	0	---	0.00	30.577 
19:55	20.0	20.0	20.0	63	9.5	0	0	---	0.00	30.576 
20:00	19.7	19.7	19.7	65	9.9	0	0	---	0.00	30.574 
20:05	19.5	19.5	19.5	65	9.7	0	0	---	0.00	30.569 
20:10	19.2	19.2	19.2	66	9.7	0	0	---	0.00	30.570 
20:15	18.9	18.9	18.9	67	9.8	0	0	---	0.00	30.571 
20:20	18.6	18.6	18.6	68	9.8	0	0	---	0.00	30.570 
20:25	18.1	18.1	18.1	68	9.3	0	0	---	0.00	30.569 
20:30	18.0	18.0	18.0	70	9.9	0	0	---	0.00	30.569 
20:35	17.8	17.8	17.8	71	10.0	0	0	---	0.00	30.569 
20:40	17.7	17.7	17.7	71	9.9	0	0	---	0.00	30.568 
20:45	17.5	17.5	17.5	71	9.7	0	0	---	0.00	30.568 
20:50	17.3	17.3	17.3	71	9.5	0	0	---	0.00	30.569 
20:55	17.0	17.0	17.0	72	9.6	0	0	---	0.00	30.569 
21:00	16.9	16.9	16.9	72	9.5	0	0	---	0.00	30.568 
21:05	16.7	16.7	16.7	73	9.6	0	0	---	0.00	30.564 
21:10	16.4	16.4	16.4	73	9.3	0	0	---	0.00	30.563 
21:15	16.1	16.1	16.1	73	9.0	0	0	---	0.00	30.566 
21:20	15.9	15.9	15.9	74	9.1	0	0	---	0.00	30.568 
21:25	15.7	15.7	15.7	75	9.2	0	0	---	0.00	30.566 
21:30	15.4	15.4	15.4	75	8.9	0	0	---	0.00	30.567 
21:35	15.2	15.2	15.2	76	9.0	0	0	---	0.00	30.566 
21:40	15.1	15.1	15.1	77	9.2	0	0	---	0.00	30.567 
21:45	15.1	15.1	15.1	78	9.5	0	0	---	0.00	30.565 
21:50	15.2	15.2	15.2	79	9.9	0	0	---	0.00	30.567 
21:55	15.2	15.2	15.2	79	9.9	0	0	---	0.00	30.569 
22:00	15.2	15.2	15.2	80	10.2	0	0	---	0.00	30.569 
22:05	15.1	15.1	15.1	80	10.1	0	0	---	0.00	30.567 
22:10	14.8	14.8	14.8	79	9.5	0	0	---	0.00	30.566 
22:15	14.4	14.4	14.4	80	9.4	0	0	---	0.00	30.567 
22:20	14.3	14.3	14.3	80	9.3	0	0	---	0.00	30.568 
22:25	14.1	14.1	14.1	80	9.1	0	0	---	0.00	30.568 
22:30	14.1	14.1	14.1	81	9.4	0	0	---	0.00	30.568 
22:35	14.1	14.1	14.1	81	9.4	0	0	---	0.00	30.568 
22:40	14.1	14.1	14.1	82	9.6	0	0	---	0.00	30.567 
22:45	14.1	14.1	14.1	82	9.6	0	0	---	0.00	30.564 
22:50	13.8	13.8	13.8	82	9.3	0	0	---	0.00	30.565 
22:55	13.6	13.6	13.6	82	9.1	0	0	---	0.00	30.567 
23:00	13.6	13.6	13.6	83	9.4	0	0	---	0.00	30.567 
23:05	13.5	13.5	13.5	83	9.3	0	0	---	0.00	30.567 
23:10	13.3	13.3	13.3	83	9.1	0	0	---	0.00	30.567 
23:15	13.1	13.1	13.1	83	8.9	0	0	---	0.00	30.565 
23:20	12.9	12.9	12.9	83	8.7	0	0	---	0.00	30.564 
23:25	12.8	12.8	12.8	84	8.9	0	0	---	0.00	30.564 
23:30	12.8	12.8	12.8	84	8.9	0	0	---	0.00	30.566 
23:35	12.8	12.8	12.8	84	8.9	0	0	---	0.00	30.566 
23:40	12.6	12.6	12.6	84	8.7	0	0	---	0.00	30.566 
23:45	12.6	12.6	12.6	84	8.7	0	0	---	0.00	30.567 
23:50	12.4	12.4	12.4	84	8.5	0	0	---	0.00	30.566 
23:55	12.3	12.3	12.3	84	8.4	0	0	---	0.00	30.568 

CoCoRaHS
IN-AL-39
A2 Web Hosting
Creative Commons License
GoDaddy
search engine by freefind advanced

loaded 2018-11-15 14:11:10 • last modified 2010-11-18 10:43:29
Privacy PolicyDisclaimer
• wx.awcolley.com is powered by PmWiki v.2002016 •
• all content (unless otherwise noted) © 2018 A W Colley